createdAt,value
2018-05-14T00:01:45.334Z,37.30
2018-05-14T00:03:49.305Z,35.47
2018-05-14T00:05:52.457Z,37.37
2018-05-14T00:07:55.640Z,36.80
2018-05-14T00:09:58.797Z,35.50
2018-05-14T00:12:01.969Z,34.03
2018-05-14T00:14:05.204Z,35.83
2018-05-14T00:16:09.128Z,35.27
2018-05-14T00:18:13.088Z,37.50
2018-05-14T00:20:16.242Z,37.33
2018-05-14T00:22:19.403Z,36.65
2018-05-14T00:24:22.583Z,39.42
2018-05-14T00:26:27.632Z,37.80
2018-05-14T00:28:31.579Z,37.80
2018-05-14T00:30:34.733Z,37.67
2018-05-14T00:32:37.916Z,37.00
2018-05-14T00:34:41.071Z,38.78
2018-05-14T00:36:45.000Z,37.97
2018-05-14T00:38:48.960Z,38.63
2018-05-14T00:40:52.115Z,38.83
2018-05-14T00:42:55.304Z,37.90
2018-05-14T00:44:58.466Z,38.00
2018-05-14T00:47:01.627Z,37.67
2018-05-14T00:49:04.826Z,36.92
2018-05-14T00:51:08.751Z,35.93
2018-05-14T00:53:11.931Z,38.10
2018-05-14T00:55:18.067Z,36.40
2018-05-14T00:57:21.220Z,37.03
2018-05-14T00:59:24.414Z,36.55
2018-05-14T01:01:30.408Z,35.45
2018-05-14T01:03:35.538Z,35.53
2018-05-14T01:05:40.982Z,37.85
2018-05-14T01:07:46.259Z,39.13
2018-05-14T01:09:51.422Z,38.73
2018-05-14T01:11:56.621Z,38.83
2018-05-14T01:14:01.844Z,37.22
2018-05-14T01:16:06.974Z,38.37
2018-05-14T01:18:12.305Z,37.77
2018-05-14T01:20:17.465Z,35.53
2018-05-14T01:22:22.744Z,35.08
2018-05-14T01:24:27.854Z,33.55
2018-05-14T01:26:32.854Z,32.43
2018-05-14T01:28:38.093Z,31.80
2018-05-14T01:30:43.002Z,31.40
2018-05-14T01:32:48.163Z,28.83
2018-05-14T01:34:53.318Z,30.43
2018-05-14T01:36:58.491Z,30.87
2018-05-14T01:39:04.523Z,30.10
2018-05-14T01:41:11.061Z,30.23
2018-05-14T01:43:16.213Z,28.93
2018-05-14T01:45:21.391Z,28.33
2018-05-14T01:47:26.765Z,29.77
2018-05-14T01:49:32.796Z,29.77
2018-05-14T01:51:37.899Z,30.65
2018-05-14T01:53:43.082Z,30.12
2018-05-14T01:55:48.264Z,31.27
2018-05-14T01:57:53.478Z,31.25
2018-05-14T01:59:58.733Z,30.07
2018-05-14T02:02:02.034Z,31.63
2018-05-14T02:04:05.214Z,31.43
2018-05-14T02:06:08.717Z,31.17
2018-05-14T02:08:13.950Z,31.60
2018-05-14T02:10:19.424Z,30.50
2018-05-14T02:12:24.682Z,29.73
2018-05-14T02:14:31.529Z,29.97
2018-05-14T02:16:37.703Z,30.02
2018-05-14T02:18:43.241Z,30.57
2018-05-14T02:20:48.668Z,30.15
2018-05-14T02:22:53.011Z,32.23
2018-05-14T02:24:56.184Z,31.43
2018-05-14T02:26:59.368Z,30.90
2018-05-14T02:29:02.546Z,31.25
2018-05-14T02:31:05.700Z,31.27
2018-05-14T02:33:09.111Z,30.47
2018-05-14T02:35:13.810Z,30.17
2018-05-14T02:37:16.970Z,30.73
2018-05-14T02:39:20.930Z,29.83
2018-05-14T02:41:24.080Z,30.58
2018-05-14T02:43:27.238Z,27.80
2018-05-14T02:45:30.428Z,29.20
2018-05-14T02:47:34.345Z,29.43
2018-05-14T02:49:38.300Z,29.30
2018-05-14T02:51:41.450Z,27.97
2018-05-14T02:53:44.603Z,29.30
2018-05-14T02:55:49.679Z,27.67
2018-05-14T02:57:52.822Z,29.27
2018-05-14T02:59:56.016Z,27.57
2018-05-14T03:01:59.175Z,28.77
2018-05-14T03:04:03.103Z,27.10
2018-05-14T03:06:07.063Z,28.10
2018-05-14T03:08:10.211Z,27.80
2018-05-14T03:10:14.898Z,26.47
2018-05-14T03:12:18.056Z,25.25
2018-05-14T03:14:21.205Z,27.27
2018-05-14T03:16:25.320Z,26.73
2018-05-14T03:18:30.368Z,26.70
2018-05-14T03:20:34.315Z,26.73
2018-05-14T03:22:37.471Z,27.33
2018-05-14T03:24:40.655Z,27.23
2018-05-14T03:26:43.826Z,28.60
2018-05-14T03:28:47.780Z,27.60
2018-05-14T03:30:50.959Z,26.90
2018-05-14T03:32:54.883Z,27.35
2018-05-14T03:34:58.835Z,27.52
2018-05-14T03:37:01.991Z,27.80
2018-05-14T03:39:05.146Z,27.98
2018-05-14T03:41:08.335Z,29.17
2018-05-14T03:43:13.542Z,27.67
2018-05-14T03:45:16.722Z,28.60
2018-05-14T03:47:19.876Z,27.33
2018-05-14T03:49:23.028Z,28.92
2018-05-14T03:51:26.275Z,27.17
2018-05-14T03:53:30.554Z,29.77
2018-05-14T03:55:36.680Z,27.87
2018-05-14T03:57:41.875Z,29.17
2018-05-14T04:00:05.048Z,28.57
2018-05-14T04:02:27.795Z,29.17
2018-05-14T04:04:50.211Z,29.57
2018-05-14T04:06:55.435Z,28.63
2018-05-14T04:09:00.935Z,29.27
2018-05-14T04:11:06.448Z,28.15
2018-05-14T04:13:13.345Z,28.53
2018-05-14T04:15:18.729Z,29.58
2018-05-14T04:17:23.591Z,27.83
2018-05-14T04:19:26.775Z,28.67
2018-05-14T04:21:31.083Z,28.90
2018-05-14T04:23:34.252Z,29.43
2018-05-14T04:25:37.435Z,30.50
2018-05-14T04:27:40.697Z,32.50
2018-05-14T04:29:44.610Z,30.97
2018-05-14T04:31:47.815Z,30.77
2018-05-14T04:33:51.099Z,29.37
2018-05-14T04:35:54.294Z,30.87
2018-05-14T04:37:57.478Z,30.53
2018-05-14T04:40:00.631Z,30.73
2018-05-14T04:42:03.810Z,29.75
2018-05-14T04:44:06.976Z,29.60
2018-05-14T04:46:12.056Z,30.50
2018-05-14T04:48:15.922Z,30.77
2018-05-14T04:50:19.073Z,30.00
2018-05-14T04:52:22.263Z,30.23
2018-05-14T04:54:25.447Z,29.83
2018-05-14T04:56:28.657Z,28.93
2018-05-14T04:58:31.805Z,31.03
2018-05-14T05:00:35.727Z,29.70
2018-05-14T05:02:39.666Z,29.10
2018-05-14T05:04:42.815Z,27.73
2018-05-14T05:06:46.004Z,29.83
2018-05-14T05:08:49.158Z,29.55
2018-05-14T05:10:52.352Z,30.33
2018-05-14T05:12:55.507Z,30.20
2018-05-14T05:14:58.690Z,28.33
2018-05-14T05:17:01.907Z,29.67
2018-05-14T05:19:05.095Z,28.87
2018-05-14T05:21:08.279Z,29.83
2018-05-14T05:23:12.032Z,29.20
2018-05-14T05:25:15.366Z,28.27
2018-05-14T05:27:19.313Z,27.87
2018-05-14T05:29:22.475Z,28.33
2018-05-14T05:31:25.663Z,27.90
2018-05-14T05:33:28.852Z,28.58
2018-05-14T05:35:32.163Z,28.97
2018-05-14T05:37:35.345Z,29.13
2018-05-14T05:39:38.494Z,27.53
2018-05-14T05:41:41.675Z,27.98
2018-05-14T05:43:44.838Z,29.23
2018-05-14T05:45:47.987Z,28.98
2018-05-14T05:47:52.300Z,30.17
2018-05-14T05:49:56.226Z,29.97
2018-05-14T05:52:00.175Z,28.05
2018-05-14T05:54:03.339Z,29.60
2018-05-14T05:56:07.263Z,28.73
2018-05-14T05:58:10.443Z,29.07
2018-05-14T06:00:13.600Z,28.53
2018-05-14T06:02:17.545Z,28.08
2018-05-14T06:04:20.703Z,29.23
2018-05-14T06:06:23.878Z,28.25
2018-05-14T06:08:27.075Z,29.17
2018-05-14T06:10:30.231Z,27.70
2018-05-14T06:12:34.176Z,28.50
2018-05-14T06:14:38.118Z,27.52
2018-05-14T06:16:41.266Z,27.83
2018-05-14T06:18:44.460Z,29.00
2018-05-14T06:20:47.639Z,26.77
2018-05-14T06:22:50.827Z,26.37
2018-05-14T06:24:54.003Z,27.03
2018-05-14T06:26:57.186Z,25.03
2018-05-14T06:29:00.336Z,26.77
2018-05-14T06:31:06.006Z,26.73
2018-05-14T06:33:09.331Z,27.43
2018-05-14T06:35:15.257Z,27.27
2018-05-14T06:37:18.435Z,27.73
2018-05-14T06:39:21.591Z,26.53
2018-05-14T06:41:24.746Z,28.30
2018-05-14T06:43:28.716Z,27.42
2018-05-14T06:45:33.771Z,26.73
2018-05-14T06:47:36.951Z,28.57
2018-05-14T06:49:40.108Z,27.03
2018-05-14T06:51:44.031Z,27.10
2018-05-14T06:53:47.211Z,26.63
2018-05-14T06:55:50.448Z,26.17
2018-05-14T06:57:53.633Z,25.10
2018-05-14T06:59:56.891Z,26.33
2018-05-14T07:02:00.807Z,26.90
2018-05-14T07:04:04.766Z,28.50
2018-05-14T07:06:07.915Z,26.70
2018-05-14T07:08:11.088Z,26.55
2018-05-14T07:10:14.244Z,25.37
2018-05-14T07:12:17.403Z,26.07
2018-05-14T07:14:20.606Z,26.00
2018-05-14T07:16:23.759Z,24.92
2018-05-14T07:18:30.154Z,25.83
2018-05-14T07:20:34.502Z,25.07
2018-05-14T07:22:38.619Z,24.40
2018-05-14T07:24:43.354Z,24.10
2018-05-14T07:26:46.507Z,25.73
2018-05-14T07:28:50.483Z,24.27
2018-05-14T07:30:53.668Z,25.43
2018-05-14T07:32:56.867Z,25.40
2018-05-14T07:35:00.789Z,24.87
2018-05-14T07:37:03.957Z,25.02
2018-05-14T07:39:07.916Z,23.92
2018-05-14T07:41:11.063Z,24.47
2018-05-14T07:43:15.044Z,22.03
2018-05-14T07:45:19.334Z,23.73
2018-05-14T07:47:22.544Z,23.80
2018-05-14T07:49:27.236Z,21.57
2018-05-14T07:51:30.397Z,22.83
2018-05-14T07:53:33.585Z,21.80
2018-05-14T07:55:36.759Z,22.77
2018-05-14T07:57:40.804Z,23.23
2018-05-14T07:59:44.000Z,23.60
2018-05-14T08:01:47.157Z,23.93
2018-05-14T08:03:50.335Z,23.23
2018-05-14T08:05:53.704Z,23.35
2018-05-14T08:07:57.055Z,22.33
2018-05-14T08:10:00.258Z,23.07
2018-05-14T08:12:03.407Z,23.87
2018-05-14T08:14:06.595Z,23.38
2018-05-14T08:16:09.750Z,22.52
2018-05-14T08:18:13.673Z,23.42
2018-05-14T08:20:17.628Z,22.93
2018-05-14T08:22:20.790Z,23.03
2018-05-14T08:24:23.979Z,21.67
2018-05-14T08:26:27.144Z,23.85
2018-05-14T08:28:30.328Z,22.07
2018-05-14T08:30:34.259Z,21.50
2018-05-14T08:32:39.905Z,22.07
2018-05-14T08:34:43.096Z,21.57
2018-05-14T08:36:46.267Z,21.23
2018-05-14T08:38:49.456Z,21.40
2018-05-14T08:40:53.365Z,20.67
2018-05-14T08:42:59.961Z,21.90
2018-05-14T08:45:04.969Z,21.03
2018-05-14T08:47:10.070Z,20.58
2018-05-14T08:49:15.827Z,20.63
2018-05-14T08:51:21.099Z,22.37
2018-05-14T08:53:25.803Z,22.02
2018-05-14T08:55:33.347Z,21.20
2018-05-14T08:57:38.226Z,21.40
2018-05-14T08:59:41.440Z,20.67
2018-05-14T09:01:44.600Z,19.75
2018-05-14T09:03:48.528Z,21.27
2018-05-14T09:05:52.483Z,21.00
2018-05-14T09:07:55.638Z,19.50
2018-05-14T09:09:59.947Z,21.13
2018-05-14T09:12:03.166Z,20.33
2018-05-14T09:14:06.314Z,21.40
2018-05-14T09:16:10.267Z,19.12
2018-05-14T09:18:13.431Z,20.10
2018-05-14T09:20:17.385Z,20.73
2018-05-14T09:22:20.558Z,19.93
2018-05-14T09:24:23.743Z,20.50
2018-05-14T09:26:26.915Z,18.77
2018-05-14T09:28:30.072Z,20.50
2018-05-14T09:30:34.045Z,19.97
2018-05-14T09:32:37.203Z,20.20
2018-05-14T09:34:40.414Z,21.53
2018-05-14T09:36:43.595Z,20.87
2018-05-14T09:38:46.750Z,20.65
2018-05-14T09:40:49.929Z,20.40
2018-05-14T09:42:53.124Z,20.73
2018-05-14T09:44:56.307Z,21.07
2018-05-14T09:47:00.471Z,21.92
2018-05-14T09:49:03.628Z,20.87
2018-05-14T09:51:07.875Z,20.83
2018-05-14T09:53:11.033Z,20.53
2018-05-14T09:55:14.228Z,19.75
2018-05-14T09:57:17.431Z,20.73
2018-05-14T09:59:20.798Z,21.00
2018-05-14T10:01:24.151Z,20.07
2018-05-14T10:03:27.351Z,21.35
2018-05-14T10:05:30.521Z,19.98
2018-05-14T10:07:34.442Z,21.53
2018-05-14T10:09:37.601Z,19.50
2018-05-14T10:11:40.784Z,19.17
2018-05-14T10:13:43.945Z,20.17
2018-05-14T10:15:48.523Z,18.02
2018-05-14T10:17:52.442Z,18.55
2018-05-14T10:19:56.391Z,19.20
2018-05-14T10:22:00.700Z,19.07
2018-05-14T10:24:04.634Z,19.60
2018-05-14T10:26:08.588Z,19.43
2018-05-14T10:28:11.748Z,21.00
2018-05-14T10:30:15.699Z,19.33
2018-05-14T10:32:18.868Z,20.23
2018-05-14T10:34:22.053Z,18.47
2018-05-14T10:36:25.239Z,19.02
2018-05-14T10:38:28.406Z,19.73
2018-05-14T10:40:31.612Z,20.63
2018-05-14T10:42:34.766Z,19.97
2018-05-14T10:44:37.934Z,19.48
2018-05-14T10:46:41.218Z,19.70
2018-05-14T10:48:45.072Z,19.07
2018-05-14T10:50:49.027Z,17.45
2018-05-14T10:52:52.185Z,18.02
2018-05-14T10:54:55.347Z,19.37
2018-05-14T10:56:58.546Z,18.75
2018-05-14T10:59:01.698Z,18.60
2018-05-14T11:01:04.879Z,18.40
2018-05-14T11:03:08.040Z,18.30
2018-05-14T11:05:11.971Z,17.42
2018-05-14T11:07:15.919Z,18.33
2018-05-14T11:09:19.090Z,18.33
2018-05-14T11:11:22.287Z,17.10
2018-05-14T11:13:25.454Z,16.33
2018-05-14T11:15:28.615Z,16.90
2018-05-14T11:17:32.283Z,16.57
2018-05-14T11:19:35.443Z,16.20
2018-05-14T11:21:40.145Z,15.17
2018-05-14T11:23:43.294Z,16.30
2018-05-14T11:25:46.450Z,15.85
2018-05-14T11:27:49.724Z,14.95
2018-05-14T11:29:52.810Z,16.30
2018-05-14T11:31:56.376Z,16.47
2018-05-14T11:33:59.529Z,16.12
2018-05-14T11:36:02.723Z,14.75
2018-05-14T11:38:05.878Z,14.77
2018-05-14T11:40:09.805Z,14.33
2018-05-14T11:42:13.766Z,14.60
2018-05-14T11:44:16.922Z,14.67
2018-05-14T11:46:20.100Z,15.18
2018-05-14T11:48:23.688Z,14.60
2018-05-14T11:50:26.786Z,13.13
2018-05-14T11:52:29.975Z,13.80
2018-05-14T11:54:33.899Z,12.73
2018-05-14T11:56:37.900Z,12.65
2018-05-14T11:58:41.036Z,12.20
2018-05-14T12:00:45.421Z,13.63
2018-05-14T12:02:48.630Z,11.53
2018-05-14T12:04:51.787Z,10.82
2018-05-14T12:06:56.850Z,9.82
2018-05-14T12:09:00.773Z,9.40
2018-05-14T12:11:04.691Z,9.73
2018-05-14T12:13:08.638Z,8.55
2018-05-14T12:15:11.789Z,8.60
2018-05-14T12:17:16.863Z,8.80
2018-05-14T12:19:20.059Z,9.68
2018-05-14T12:21:23.975Z,9.30
2018-05-14T12:23:27.155Z,7.83
2018-05-14T12:25:30.299Z,8.63
2018-05-14T12:27:33.475Z,7.65
2018-05-14T12:29:37.578Z,6.92
2018-05-14T12:31:40.754Z,7.53
2018-05-14T12:33:43.930Z,7.72
2018-05-14T12:35:47.070Z,6.90
2018-05-14T12:37:51.758Z,7.80
2018-05-14T12:39:55.811Z,6.50
2018-05-14T12:41:58.954Z,6.63
2018-05-14T12:44:03.055Z,6.18
2018-05-14T12:46:06.244Z,6.00
2018-05-14T12:48:12.081Z,6.37
2018-05-14T12:50:15.358Z,5.62
2018-05-14T12:52:18.535Z,6.23
2018-05-14T12:54:21.721Z,5.50
2018-05-14T12:56:24.905Z,5.30
2018-05-14T12:58:28.075Z,5.68
2018-05-14T13:00:31.236Z,5.23
2018-05-14T13:02:35.191Z,5.87
2018-05-14T13:04:38.607Z,5.20
2018-05-14T13:06:41.755Z,4.50
2018-05-14T13:08:44.944Z,4.60
2018-05-14T13:10:48.136Z,4.00
2018-05-14T13:12:51.307Z,4.07
2018-05-14T13:14:55.220Z,4.22
2018-05-14T13:16:58.363Z,3.83
2018-05-14T13:19:01.548Z,3.65
2018-05-14T13:21:05.465Z,3.67
2018-05-14T13:23:09.418Z,3.56
2018-05-14T13:25:12.574Z,4.05
2018-05-14T13:27:15.743Z,3.13
2018-05-14T13:29:18.917Z,3.40
2018-05-14T13:31:22.830Z,2.95
2018-05-14T13:33:26.014Z,2.87
2018-05-14T13:35:29.160Z,3.33
2018-05-14T13:37:35.155Z,2.95
2018-05-14T13:39:39.196Z,3.30
2018-05-14T13:41:42.398Z,2.87
2018-05-14T13:43:45.589Z,3.15
2018-05-14T13:45:48.766Z,3.42
2018-05-14T13:47:52.692Z,2.67
2018-05-14T13:49:55.874Z,2.70
2018-05-14T13:51:59.032Z,2.97
2018-05-14T13:54:02.984Z,2.67
2018-05-14T13:56:06.144Z,2.90
2018-05-14T13:58:10.014Z,2.60
2018-05-14T14:00:13.964Z,2.75
2018-05-14T14:02:17.123Z,2.70
2018-05-14T14:04:21.110Z,2.78
2018-05-14T14:06:24.258Z,2.30
2018-05-14T14:08:28.211Z,2.30
2018-05-14T14:10:32.163Z,2.47
2018-05-14T14:12:35.316Z,2.65
2018-05-14T14:14:39.261Z,2.72
2018-05-14T14:16:42.417Z,2.40
2018-05-14T14:18:46.478Z,2.37
2018-05-14T14:20:50.411Z,2.60
2018-05-14T14:22:53.561Z,2.37
2018-05-14T14:24:56.747Z,2.78
2018-05-14T14:26:59.906Z,2.58
2018-05-14T14:29:03.138Z,2.50
2018-05-14T14:31:07.047Z,2.37
2018-05-14T14:33:10.198Z,2.25
2018-05-14T14:35:13.379Z,2.80
2018-05-14T14:37:17.434Z,2.35
2018-05-14T14:39:20.502Z,2.40
2018-05-14T14:41:24.420Z,2.37
2018-05-14T14:43:27.569Z,2.27
2018-05-14T14:45:30.752Z,2.30
2018-05-14T14:47:34.669Z,2.53
2018-05-14T14:49:38.623Z,3.03
2018-05-14T14:51:41.771Z,2.20
2018-05-14T14:53:44.930Z,2.40
2018-05-14T14:55:48.115Z,2.47
2018-05-14T14:57:53.142Z,2.50
2018-05-14T14:59:56.311Z,2.00
2018-05-14T15:01:59.503Z,2.25
2018-05-14T15:04:02.807Z,2.40
2018-05-14T15:06:06.746Z,2.17
2018-05-14T15:08:10.979Z,2.10
2018-05-14T15:10:14.931Z,2.65
2018-05-14T15:12:18.097Z,2.80
2018-05-14T15:14:22.295Z,2.10
2018-05-14T15:16:25.501Z,2.70
2018-05-14T15:18:28.663Z,2.47
2018-05-14T15:20:32.960Z,2.30
2018-05-14T15:22:36.103Z,2.33
2018-05-14T15:24:39.246Z,2.15
2018-05-14T15:26:42.431Z,1.80
2018-05-14T15:28:45.872Z,2.20
2018-05-14T15:30:49.066Z,2.12
2018-05-14T15:32:53.074Z,2.16
2018-05-14T15:34:56.262Z,2.28
2018-05-14T15:37:00.206Z,3.17
2018-05-14T15:39:03.369Z,3.40
2018-05-14T15:41:06.559Z,2.03
2018-05-14T15:43:09.736Z,2.70
2018-05-14T15:45:13.868Z,2.40
2018-05-14T15:47:17.022Z,1.85
2018-05-14T15:49:20.186Z,2.33
2018-05-14T15:51:23.371Z,2.30
2018-05-14T15:53:27.295Z,3.30
2018-05-14T15:55:31.243Z,2.23
2018-05-14T15:57:34.415Z,2.30
2018-05-14T15:59:38.331Z,2.33
2018-05-14T16:01:41.544Z,2.40
2018-05-14T16:03:45.459Z,2.37
2018-05-14T16:05:48.637Z,2.67
2018-05-14T16:07:51.797Z,2.17
2018-05-14T16:09:56.829Z,2.63
2018-05-14T16:12:00.005Z,2.10
2018-05-14T16:14:03.178Z,2.27
2018-05-14T16:16:06.355Z,2.70
2018-05-14T16:18:10.315Z,2.80
2018-05-14T16:20:13.458Z,2.53
2018-05-14T16:22:16.678Z,2.05
2018-05-14T16:24:19.828Z,2.10
2018-05-14T16:26:23.771Z,2.40
2018-05-14T16:28:26.914Z,2.40
2018-05-14T16:30:30.104Z,2.32
2018-05-14T16:32:33.287Z,2.17
2018-05-14T16:34:36.462Z,2.53
2018-05-14T16:36:39.643Z,2.43
2018-05-14T16:38:42.802Z,2.13
2018-05-14T16:40:46.752Z,2.55
2018-05-14T16:42:49.904Z,2.70
2018-05-14T16:44:53.846Z,2.43
2018-05-14T16:46:57.023Z,2.60
2018-05-14T16:49:00.193Z,2.70
2018-05-14T16:51:03.627Z,2.10
2018-05-14T16:53:06.902Z,2.97
2018-05-14T16:55:10.110Z,2.80
2018-05-14T16:57:14.448Z,2.25
2018-05-14T16:59:17.655Z,2.50
2018-05-14T17:01:22.189Z,2.70
2018-05-14T17:03:26.098Z,2.70
2018-05-14T17:05:29.250Z,2.70
2018-05-14T17:07:32.691Z,2.70
2018-05-14T17:09:37.179Z,2.37
2018-05-14T17:11:40.533Z,2.37
2018-05-14T17:13:43.679Z,2.20
2018-05-14T17:15:46.832Z,2.35
2018-05-14T17:17:50.014Z,2.30
2018-05-14T17:19:53.924Z,2.53
2018-05-14T17:21:57.112Z,2.67
2018-05-14T17:24:00.267Z,2.45
2018-05-14T17:26:03.451Z,2.40
2018-05-14T17:28:06.627Z,2.67
2018-05-14T17:30:10.067Z,2.40
2018-05-14T17:32:13.263Z,2.77
2018-05-14T17:34:16.470Z,2.67
2018-05-14T17:36:22.212Z,2.73
2018-05-14T17:38:26.303Z,2.50
2018-05-14T17:40:29.616Z,2.50
2018-05-14T17:42:33.121Z,2.62
2018-05-14T17:44:37.034Z,2.37
2018-05-14T17:46:40.982Z,2.40
2018-05-14T17:48:44.930Z,2.42
2018-05-14T17:50:48.082Z,2.50
2018-05-14T17:52:51.361Z,2.70
2018-05-14T17:54:54.455Z,2.30
2018-05-14T17:56:57.741Z,2.35
2018-05-14T17:59:01.656Z,2.30
2018-05-14T18:01:05.573Z,2.43
2018-05-14T18:03:10.256Z,2.30
2018-05-14T18:05:13.456Z,2.57
2018-05-14T18:07:16.651Z,2.20
2018-05-14T18:09:20.575Z,2.37
2018-05-14T18:11:24.503Z,2.67
2018-05-14T18:13:28.472Z,2.50
2018-05-14T18:15:31.655Z,2.20
2018-05-14T18:17:34.910Z,2.70
2018-05-14T18:19:44.384Z,2.33
2018-05-14T18:21:48.320Z,2.30
2018-05-14T18:23:51.512Z,2.47
2018-05-14T18:25:55.324Z,2.70
2018-05-14T18:28:01.283Z,2.47
2018-05-14T18:30:09.964Z,2.50
2018-05-14T18:32:14.294Z,2.30
2018-05-14T18:34:18.264Z,2.63
2018-05-14T18:36:21.489Z,2.50
2018-05-14T18:38:24.663Z,2.60
2018-05-14T18:40:27.904Z,2.37
2018-05-14T18:42:32.375Z,3.17
2018-05-14T18:44:36.420Z,2.93
2018-05-14T18:46:40.335Z,2.40
2018-05-14T18:48:44.290Z,2.28
2018-05-14T18:50:47.504Z,2.53
2018-05-14T18:52:50.683Z,2.87
2018-05-14T18:54:54.235Z,2.80
2018-05-14T18:56:57.394Z,2.60
2018-05-14T18:59:00.579Z,2.40
2018-05-14T19:01:03.828Z,2.70
2018-05-14T19:03:08.778Z,2.40
2018-05-14T19:05:12.716Z,3.10
2018-05-14T19:07:15.912Z,2.60
2018-05-14T19:09:19.877Z,2.67
2018-05-14T19:11:28.720Z,2.73
2018-05-14T19:13:31.904Z,3.03
2018-05-14T19:15:40.583Z,2.87
2018-05-14T19:17:49.444Z,2.90
2018-05-14T19:19:52.653Z,2.85
2018-05-14T19:21:55.811Z,2.67
2018-05-14T19:23:59.019Z,2.67
2018-05-14T19:26:02.492Z,2.53
2018-05-14T19:28:11.976Z,3.12
2018-05-14T19:30:15.139Z,2.20
2018-05-14T19:32:18.300Z,2.90
2018-05-14T19:37:03.374Z,3.03
2018-05-14T19:39:07.320Z,2.57
2018-05-14T19:41:10.483Z,2.92
2018-05-14T19:43:14.787Z,2.77
2018-05-14T19:45:18.106Z,3.53
2018-05-14T19:47:21.562Z,2.85
2018-05-14T19:49:25.706Z,2.73
2018-05-14T19:51:28.782Z,2.63
2018-05-14T19:53:32.738Z,2.97
2018-05-14T19:55:37.540Z,3.00
2018-05-14T19:57:40.800Z,3.12
2018-05-14T19:59:44.040Z,2.83
2018-05-14T20:01:47.952Z,2.73
2018-05-14T20:03:51.147Z,3.10
2018-05-14T20:05:55.172Z,2.70
2018-05-14T20:07:58.335Z,3.30
2018-05-14T20:10:01.520Z,2.83
2018-05-14T20:12:04.692Z,2.77
2018-05-14T20:14:07.883Z,3.20
2018-05-14T20:16:11.859Z,3.25
2018-05-14T20:18:15.244Z,3.03
2018-05-14T20:20:18.416Z,2.80
2018-05-14T20:22:22.346Z,2.70
2018-05-14T20:24:25.533Z,3.30
2018-05-14T20:26:28.813Z,2.70
2018-05-14T20:28:31.983Z,2.70
2018-05-14T20:30:35.438Z,2.95
2018-05-14T20:32:38.617Z,3.40
2018-05-14T20:34:41.870Z,3.50
2018-05-14T20:36:45.031Z,4.37
2018-05-14T20:38:48.951Z,3.35
2018-05-14T20:40:53.012Z,2.67
2018-05-14T20:42:56.169Z,3.17
2018-05-14T20:45:00.111Z,4.57
2018-05-14T20:47:04.084Z,11.20
2018-05-14T20:49:07.364Z,3.62
2018-05-14T20:51:10.585Z,14.30
2018-05-14T20:53:13.743Z,11.67
2018-05-14T20:55:16.927Z,5.23
2018-05-14T20:57:20.082Z,18.53
2018-05-14T20:59:24.027Z,12.02
2018-05-14T21:01:27.178Z,7.70
2018-05-14T21:03:30.323Z,3.92
2018-05-14T21:05:34.268Z,3.80
2018-05-14T21:07:37.419Z,4.00
2018-05-14T21:09:41.368Z,9.93
2018-05-14T21:11:44.519Z,3.80
2018-05-14T21:13:47.667Z,3.37
2018-05-14T21:15:51.050Z,3.22
2018-05-14T21:17:54.220Z,2.60
2018-05-14T21:19:58.195Z,2.73
2018-05-14T21:22:01.380Z,2.97
2018-05-14T21:24:04.579Z,3.30
2018-05-14T21:26:07.771Z,5.28
2018-05-14T21:28:11.835Z,3.83
2018-05-14T21:30:15.984Z,2.95
2018-05-14T21:32:19.140Z,46.10
2018-05-14T21:34:23.090Z,21.50
2018-05-14T21:36:26.275Z,5.87
2018-05-14T21:38:30.193Z,3.83
2018-05-14T21:40:34.143Z,7.00
2018-05-14T21:42:37.320Z,3.40
2018-05-14T21:44:41.263Z,4.35
2018-05-14T21:46:45.213Z,3.00
2018-05-14T21:48:48.378Z,3.37
2018-05-14T21:50:52.323Z,16.30
2018-05-14T21:52:56.143Z,4.43
2018-05-14T21:55:00.061Z,3.97
2018-05-14T21:57:04.008Z,3.25
2018-05-14T21:59:07.168Z,2.70
2018-05-14T22:01:11.860Z,2.62
2018-05-14T22:03:16.128Z,2.83
2018-05-14T22:05:19.307Z,2.90
2018-05-14T22:07:22.479Z,3.30
2018-05-14T22:09:26.395Z,2.70
2018-05-14T22:11:30.348Z,16.87
2018-05-14T22:13:33.510Z,37.03
2018-05-14T22:15:36.699Z,10.10
2018-05-14T22:17:39.869Z,4.80
2018-05-14T22:19:43.782Z,5.57
2018-05-14T22:21:47.720Z,3.37
2018-05-14T22:23:51.653Z,3.08
2018-05-14T22:25:56.724Z,7.27
2018-05-14T22:27:59.888Z,5.27
2018-05-14T22:30:03.052Z,3.23
2018-05-14T22:32:06.238Z,3.53
2018-05-14T22:34:09.399Z,3.00
2018-05-14T22:36:12.570Z,3.90
2018-05-14T22:38:16.490Z,3.37
2018-05-14T22:40:19.635Z,3.50
2018-05-14T22:42:22.808Z,2.65
2018-05-14T22:44:25.974Z,3.03
2018-05-14T22:46:29.168Z,2.93
2018-05-14T22:48:32.311Z,4.03
2018-05-14T22:50:37.344Z,3.70
2018-05-14T22:52:40.516Z,3.77
2018-05-14T22:54:43.670Z,8.27
2018-05-14T22:56:49.701Z,3.95
2018-05-14T22:58:54.815Z,3.23
2018-05-14T23:00:59.018Z,3.10
2018-05-14T23:03:02.705Z,2.70
2018-05-14T23:05:05.985Z,2.97
2018-05-14T23:07:09.604Z,4.10
2018-05-14T23:09:12.764Z,3.28
2018-05-14T23:11:17.632Z,2.62
2018-05-14T23:13:21.547Z,2.83
2018-05-14T23:15:25.487Z,2.53
2018-05-14T23:17:29.422Z,2.78
2018-05-14T23:19:32.578Z,2.67
2018-05-14T23:21:36.878Z,3.13
2018-05-14T23:23:40.023Z,2.80
2018-05-14T23:25:43.167Z,2.57
2018-05-14T23:27:47.106Z,2.90
2018-05-14T23:29:50.259Z,3.12
2018-05-14T23:31:53.663Z,2.83
2018-05-14T23:33:57.098Z,2.50
2018-05-14T23:36:00.537Z,2.60
2018-05-14T23:38:04.471Z,2.63
2018-05-14T23:40:08.380Z,2.90
2018-05-14T23:42:12.336Z,2.93
2018-05-14T23:44:15.502Z,3.00
2018-05-14T23:46:18.671Z,2.60
2018-05-14T23:48:21.842Z,2.40
2018-05-14T23:50:25.760Z,2.70
2018-05-14T23:52:29.705Z,2.72
2018-05-14T23:54:32.870Z,3.30
2018-05-14T23:56:37.159Z,2.53
2018-05-14T23:58:40.337Z,2.50
